Time;durP1;ratioP1;P1;durP2;ratioP2;P2;SDS_P1;SDS_P2;PMS_P1;PMS_P2;Temp;Humidity;BMP_temperature;BMP_pressure;BME280_temperature;BME280_humidity;BME280_pressure;Samples;Min_cycle;Max_cycle;Signal;HPM_P1;HPM_P2
2021/12/02 00:01:11;;;;;;;0.77;0.70;;;4.80;99.90;;;;;;5035150;28;20481;-83
2021/12/02 00:03:38;;;;;;;0.30;0.20;;;4.90;99.90;;;;;;5034846;28;20976;-83
2021/12/02 00:06:09;;;;;;;0.30;0.20;;;4.80;99.90;;;;;;5034571;28;20529;-82
2021/12/02 00:08:36;;;;;;;0.30;0.20;;;4.80;99.90;;;;;;5035111;28;20434;-83
2021/12/02 00:11:04;;;;;;;0.30;0.20;;;4.70;99.90;;;;;;5034531;28;20848;-83
2021/12/02 00:13:39;;;;;;;0.57;0.57;;;4.60;99.90;;;;;;5035601;28;20470;-83
2021/12/02 00:16:17;;;;;;;0.30;0.20;;;4.60;99.90;;;;;;5034992;28;20441;-83
2021/12/02 00:21:30;;;;;;;0.30;0.20;;;4.40;99.90;;;;;;5035499;28;20477;-81
2021/12/02 00:24:03;;;;;;;0.40;0.40;;;4.40;99.90;;;;;;5034435;28;20969;-81
2021/12/02 00:26:32;;;;;;;0.30;0.20;;;4.40;99.90;;;;;;5034778;28;20434;-81
2021/12/02 00:29:01;;;;;;;0.30;0.20;;;4.40;99.90;;;;;;5034673;28;20434;-80
2021/12/02 00:31:30;;;;;;;0.30;0.20;;;4.30;99.90;;;;;;5034576;28;20459;-81
2021/12/02 00:33:59;;;;;;;0.30;0.20;;;4.30;99.90;;;;;;5034328;28;20482;-81
2021/12/02 00:36:28;;;;;;;0.30;0.20;;;4.30;99.90;;;;;;5034181;28;20431;-81
2021/12/02 00:38:55;;;;;;;0.30;0.30;;;4.30;99.90;;;;;;5034291;28;20438;-81
2021/12/02 00:41:24;;;;;;;0.30;0.20;;;4.30;99.90;;;;;;5034310;28;20467;-81
2021/12/02 00:43:54;;;;;;;0.30;0.20;;;4.30;99.90;;;;;;5034408;28;20447;-81
2021/12/02 00:46:22;;;;;;;0.30;0.30;;;4.30;99.90;;;;;;5034081;28;20435;-81
2021/12/02 00:48:50;;;;;;;0.30;0.20;;;4.30;99.90;;;;;;5034301;28;20835;-81
2021/12/02 00:51:19;;;;;;;0.30;0.30;;;4.40;99.90;;;;;;5034241;28;20470;-81
2021/12/02 00:53:52;;;;;;;0.30;0.20;;;4.40;99.90;;;;;;5034291;28;20451;-80
2021/12/02 00:56:24;;;;;;;0.60;0.60;;;4.40;99.90;;;;;;5034267;28;20485;-80
2021/12/02 00:58:54;;;;;;;0.30;0.20;;;4.40;99.90;;;;;;5034212;28;20419;-81
2021/12/02 01:01:23;;;;;;;0.30;0.20;;;4.40;99.90;;;;;;5034020;28;20474;-81
2021/12/02 01:03:54;;;;;;;0.30;0.20;;;4.40;99.90;;;;;;5034346;28;20489;-82
2021/12/02 01:06:21;;;;;;;0.30;0.30;;;4.40;99.90;;;;;;5033767;28;20422;-82
2021/12/02 01:08:48;;;;;;;0.30;0.20;;;4.30;99.90;;;;;;5033647;28;20447;-82
2021/12/02 01:11:16;;;;;;;0.30;0.30;;;4.30;99.90;;;;;;5033875;28;20496;-82
2021/12/02 01:13:43;;;;;;;0.30;0.20;;;4.20;99.90;;;;;;5033790;28;20439;-82
2021/12/02 01:16:12;;;;;;;0.30;0.20;;;4.20;99.90;;;;;;5033843;28;20473;-82
2021/12/02 01:18:38;;;;;;;0.50;0.50;;;4.20;99.90;;;;;;5032878;28;20486;-82
2021/12/02 01:21:05;;;;;;;0.30;0.30;;;4.10;99.90;;;;;;5033525;28;21013;-82
2021/12/02 01:23:34;;;;;;;0.30;0.20;;;4.10;99.90;;;;;;5033545;28;20942;-82
2021/12/02 01:26:03;;;;;;;0.30;0.30;;;4.10;99.90;;;;;;5033635;28;20826;-82
2021/12/02 01:28:30;;;;;;;0.30;0.30;;;4.10;99.90;;;;;;5033610;28;20491;-82
2021/12/02 01:30:58;;;;;;;0.30;0.20;;;4.20;99.90;;;;;;5033424;28;20502;-82
2021/12/02 01:33:27;;;;;;;0.30;0.20;;;4.20;99.90;;;;;;5033593;28;20435;-82
2021/12/02 01:35:58;;;;;;;0.30;0.30;;;4.20;99.90;;;;;;5033017;28;20542;-82
2021/12/02 01:38:25;;;;;;;0.30;0.30;;;4.30;99.90;;;;;;5034019;28;20485;-81
2021/12/02 01:40:54;;;;;;;0.30;0.20;;;4.30;99.90;;;;;;5033171;28;20957;-82
2021/12/02 01:43:22;;;;;;;0.30;0.20;;;4.30;99.90;;;;;;5034256;28;20457;-82
2021/12/02 01:45:49;;;;;;;0.30;0.30;;;4.40;99.90;;;;;;5033434;28;20450;-82
2021/12/02 01:48:24;;;;;;;0.30;0.20;;;4.40;99.90;;;;;;5033109;28;20821;-82
2021/12/02 01:51:02;;;;;;;0.30;0.20;;;4.40;99.90;;;;;;5033309;28;20492;-82
2021/12/02 01:53:33;;;;;;;0.30;0.20;;;4.40;99.90;;;;;;5033177;28;20419;-82
2021/12/02 01:56:09;;;;;;;0.30;0.20;;;4.40;99.90;;;;;;5033341;28;20427;-83
2021/12/02 01:58:43;;;;;;;0.30;0.30;;;4.50;99.90;;;;;;5033336;28;20835;-83
2021/12/02 02:01:15;;;;;;;0.30;0.30;;;4.50;99.90;;;;;;5033786;28;20485;-83
2021/12/02 02:03:43;;;;;;;0.30;0.20;;;4.40;99.90;;;;;;5033833;28;20800;-83
2021/12/02 02:06:14;;;;;;;0.30;0.30;;;4.40;99.90;;;;;;5033285;28;20924;-83
2021/12/02 02:08:45;;;;;;;0.30;0.30;;;4.40;99.90;;;;;;5033251;28;20432;-83
2021/12/02 02:11:12;;;;;;;0.30;0.20;;;4.30;99.90;;;;;;5033109;28;20528;-83
2021/12/02 02:13:41;;;;;;;0.30;0.20;;;4.30;99.90;;;;;;5033873;28;20945;-83
2021/12/02 02:16:08;;;;;;;0.30;0.20;;;4.30;99.90;;;;;;5033177;28;20545;-82
2021/12/02 02:18:36;;;;;;;0.30;0.20;;;4.30;99.90;;;;;;5033061;28;20489;-83
2021/12/02 02:21:08;;;;;;;0.30;0.30;;;4.30;99.90;;;;;;5033067;28;20470;-82
2021/12/02 02:23:39;;;;;;;0.30;0.20;;;4.20;99.90;;;;;;5033355;28;20903;-82
2021/12/02 02:26:08;;;;;;;0.30;0.30;;;4.20;99.90;;;;;;5033332;28;20465;-82
2021/12/02 02:28:35;;;;;;;0.50;0.50;;;4.10;99.90;;;;;;5033018;28;20478;-82
2021/12/02 02:31:03;;;;;;;0.30;0.20;;;4.10;99.90;;;;;;5036597;28;20494;-82
2021/12/02 02:33:35;;;;;;;0.30;0.30;;;4.00;99.90;;;;;;5036872;28;20508;-83
2021/12/02 02:36:03;;;;;;;0.30;0.20;;;4.00;99.90;;;;;;5036398;28;20853;-82
2021/12/02 02:38:30;;;;;;;0.30;0.30;;;3.90;99.90;;;;;;5036655;28;20490;-82
2021/12/02 02:40:59;;;;;;;0.30;0.20;;;3.90;99.90;;;;;;5036649;28;20468;-82
2021/12/02 02:43:27;;;;;;;0.30;0.30;;;3.80;99.90;;;;;;5037069;28;20458;-82
2021/12/02 02:45:54;;;;;;;0.30;0.20;;;3.70;99.90;;;;;;5036645;28;20450;-82
2021/12/02 02:48:21;;;;;;;0.30;0.20;;;3.70;99.90;;;;;;5036221;28;20458;-82
2021/12/02 02:50:48;;;;;;;0.30;0.30;;;3.70;99.90;;;;;;5036141;28;20474;-82
2021/12/02 02:53:21;;;;;;;0.30;0.20;;;3.70;99.90;;;;;;5036487;28;20457;-82
2021/12/02 02:55:56;;;;;;;0.30;0.30;;;3.70;99.90;;;;;;5036481;28;20431;-82
2021/12/02 02:58:29;;;;;;;0.30;0.20;;;3.70;99.90;;;;;;5036346;28;20497;-82
2021/12/02 03:01:03;;;;;;;0.30;0.30;;;3.70;99.90;;;;;;5036276;28;20966;-82
2021/12/02 03:03:39;;;;;;;0.30;0.20;;;3.80;99.90;;;;;;5036035;28;20949;-82
2021/12/02 03:06:22;;;;;;;0.30;0.20;;;3.80;99.90;;;;;;5035985;28;20540;-82
2021/12/02 03:08:55;;;;;;;0.30;0.30;;;3.80;99.90;;;;;;5036855;28;20450;-82
2021/12/02 03:11:23;;;;;;;0.30;0.20;;;3.80;99.90;;;;;;5036085;28;20478;-82
2021/12/02 03:13:51;;;;;;;0.30;0.30;;;3.80;99.90;;;;;;5035806;28;20938;-82
2021/12/02 03:16:37;;;;;;;0.30;0.20;;;3.70;99.90;;;;;;5036129;28;20481;-82
2021/12/02 03:19:04;;;;;;;0.30;0.30;;;3.70;99.90;;;;;;5036166;28;20870;-82
2021/12/02 03:21:31;;;;;;;0.30;0.20;;;3.70;99.90;;;;;;5035947;28;20453;-82
2021/12/02 03:24:01;;;;;;;0.30;0.20;;;3.60;99.90;;;;;;5035592;28;20496;-82
2021/12/02 03:26:29;;;;;;;0.30;0.20;;;3.60;99.90;;;;;;5035765;28;20435;-82
2021/12/02 03:28:56;;;;;;;0.30;0.20;;;3.50;99.90;;;;;;5035483;28;20442;-83
2021/12/02 03:31:24;;;;;;;0.30;0.20;;;3.50;99.90;;;;;;5035733;28;20493;-82
2021/12/02 03:33:51;;;;;;;0.30;0.23;;;3.40;99.90;;;;;;5035622;28;20457;-83
2021/12/02 03:36:19;;;;;;;0.30;0.20;;;3.40;99.90;;;;;;5035720;28;20454;-82
2021/12/02 03:38:46;;;;;;;0.30;0.20;;;3.30;99.90;;;;;;5035547;28;20493;-82
2021/12/02 03:41:15;;;;;;;0.30;0.30;;;3.40;99.90;;;;;;5034682;28;20537;-82
2021/12/02 03:43:43;;;;;;;0.30;0.30;;;3.30;99.90;;;;;;5035302;28;20942;-82
2021/12/02 03:46:12;;;;;;;0.30;0.20;;;3.30;99.90;;;;;;5035559;28;20450;-82
2021/12/02 03:48:38;;;;;;;0.30;0.20;;;3.20;99.90;;;;;;5035393;28;20451;-82
2021/12/02 03:51:06;;;;;;;0.30;0.20;;;3.20;99.90;;;;;;5035351;28;20470;-82
2021/12/02 03:53:33;;;;;;;0.30;0.30;;;3.30;99.90;;;;;;5035501;28;20438;-82
2021/12/02 03:56:01;;;;;;;0.30;0.20;;;3.40;99.90;;;;;;5035235;28;20858;-82
2021/12/02 03:58:29;;;;;;;0.30;0.20;;;3.40;99.90;;;;;;5035037;28;21015;-83
2021/12/02 04:00:56;;;;;;;0.30;0.30;;;3.50;99.90;;;;;;5035266;28;20474;-82
2021/12/02 04:03:23;;;;;;;0.30;0.27;;;3.50;99.90;;;;;;5035453;28;20442;-82
2021/12/02 04:05:49;;;;;;;0.30;0.30;;;3.50;99.90;;;;;;5035453;28;20462;-82
2021/12/02 04:08:17;;;;;;;0.30;0.20;;;3.50;99.90;;;;;;5035036;28;20447;-83
2021/12/02 04:10:45;;;;;;;0.30;0.30;;;3.50;99.90;;;;;;5035392;28;20470;-82
2021/12/02 04:13:17;;;;;;;0.30;0.20;;;3.60;99.90;;;;;;5039878;28;20504;-82
2021/12/02 04:15:50;;;;;;;0.30;0.20;;;3.70;99.90;;;;;;5035292;28;20439;-81
2021/12/02 04:18:17;;;;;;;0.30;0.20;;;3.60;99.90;;;;;;5034921;28;20877;-81
2021/12/02 04:20:44;;;;;;;0.30;0.30;;;3.70;99.90;;;;;;5034647;28;20459;-81
2021/12/02 04:23:11;;;;;;;0.30;0.30;;;3.70;99.90;;;;;;5034664;28;20807;-81
2021/12/02 04:25:38;;;;;;;0.30;0.20;;;3.70;99.90;;;;;;5034778;28;20450;-81
2021/12/02 04:28:04;;;;;;;0.30;0.20;;;3.70;99.90;;;;;;5034692;28;20447;-81
2021/12/02 04:30:31;;;;;;;0.30;0.20;;;3.70;99.90;;;;;;5034906;28;20447;-81
2021/12/02 04:33:00;;;;;;;0.30;0.27;;;3.70;99.90;;;;;;5034349;28;20431;-81
2021/12/02 04:35:26;;;;;;;0.30;0.20;;;3.70;99.90;;;;;;5034077;28;21005;-81
2021/12/02 04:37:53;;;;;;;0.30;0.30;;;3.70;99.90;;;;;;5034463;28;20451;-81
2021/12/02 04:40:22;;;;;;;0.30;0.20;;;3.70;99.90;;;;;;5034096;28;20479;-81
2021/12/02 04:42:49;;;;;;;0.30;0.30;;;3.70;99.90;;;;;;5034398;28;20443;-81
2021/12/02 04:45:16;;;;;;;0.30;0.20;;;3.70;99.90;;;;;;5034373;28;20473;-81
2021/12/02 04:47:44;;;;;;;0.30;0.20;;;3.60;99.90;;;;;;5034019;28;20950;-81
2021/12/02 04:50:12;;;;;;;0.30;0.30;;;3.70;99.90;;;;;;5033848;28;21017;-81
2021/12/02 04:52:39;;;;;;;0.30;0.20;;;3.70;99.90;;;;;;5034094;28;20454;-81
2021/12/02 04:55:07;;;;;;;0.30;0.20;;;3.70;99.90;;;;;;5033986;28;20501;-81
2021/12/02 04:57:34;;;;;;;0.30;0.30;;;3.70;99.90;;;;;;5034271;28;20451;-81
2021/12/02 05:00:01;;;;;;;0.30;0.30;;;3.70;99.90;;;;;;5033947;28;20493;-81
2021/12/02 05:02:28;;;;;;;0.30;0.20;;;3.60;99.90;;;;;;5033746;28;20956;-80
2021/12/02 05:04:54;;;;;;;0.30;0.20;;;3.70;99.90;;;;;;5033980;28;20442;-80
2021/12/02 05:07:22;;;;;;;0.30;0.20;;;3.60;99.90;;;;;;5033659;28;20840;-80
2021/12/02 05:09:49;;;;;;;0.30;0.20;;;3.60;99.90;;;;;;5034303;28;20470;-80
2021/12/02 05:12:16;;;;;;;0.30;0.20;;;3.60;99.90;;;;;;5033837;28;20455;-80
2021/12/02 05:14:43;;;;;;;0.30;0.20;;;3.60;99.90;;;;;;5033735;28;20462;-81
2021/12/02 05:17:09;;;;;;;0.30;0.20;;;3.70;99.90;;;;;;5033525;28;20450;-81
2021/12/02 05:19:36;;;;;;;0.30;0.30;;;3.70;99.90;;;;;;5033439;28;20565;-81
2021/12/02 05:22:03;;;;;;;0.30;0.30;;;3.70;99.90;;;;;;5033433;28;20450;-82
2021/12/02 05:24:32;;;;;;;0.30;0.20;;;3.60;99.90;;;;;;5033816;28;20451;-81
2021/12/02 05:26:58;;;;;;;0.30;0.30;;;3.60;99.90;;;;;;5033693;28;20450;-82
2021/12/02 05:29:25;;;;;;;0.30;0.20;;;3.60;99.90;;;;;;5033554;28;20475;-81
2021/12/02 05:31:52;;;;;;;0.30;0.30;;;3.60;99.90;;;;;;5033401;28;20462;-82
2021/12/02 05:34:19;;;;;;;0.30;0.20;;;3.60;99.90;;;;;;5033429;28;20478;-82
2021/12/02 05:36:45;;;;;;;0.30;0.20;;;3.50;99.90;;;;;;5033630;28;20445;-83
2021/12/02 05:39:12;;;;;;;0.30;0.30;;;3.50;99.90;;;;;;5033170;28;20478;-83
2021/12/02 05:41:40;;;;;;;0.30;0.30;;;3.50;99.90;;;;;;5033366;28;20439;-83
2021/12/02 05:44:07;;;;;;;0.30;0.20;;;3.50;99.90;;;;;;5033504;28;20451;-83
2021/12/02 05:46:34;;;;;;;0.30;0.30;;;3.50;99.90;;;;;;5033223;28;20442;-80
2021/12/02 05:49:01;;;;;;;0.30;0.30;;;3.50;99.90;;;;;;5033426;28;20443;-79
2021/12/02 05:51:27;;;;;;;0.30;0.20;;;3.40;99.90;;;;;;5033326;28;20841;-79
2021/12/02 05:53:54;;;;;;;0.30;0.20;;;3.40;99.90;;;;;;5033344;28;20439;-79
2021/12/02 05:56:21;;;;;;;0.30;0.20;;;3.40;99.90;;;;;;5033304;28;20447;-79
2021/12/02 05:58:49;;;;;;;0.30;0.20;;;3.30;99.90;;;;;;5032935;28;20842;-79
2021/12/02 06:01:16;;;;;;;0.30;0.30;;;3.30;99.90;;;;;;5033266;28;20528;-78
2021/12/02 06:03:43;;;;;;;0.30;0.20;;;3.20;99.90;;;;;;5033265;28;20520;-79
2021/12/02 06:06:10;;;;;;;0.30;0.30;;;3.20;99.90;;;;;;5037156;28;20431;-79
2021/12/02 06:08:37;;;;;;;0.30;0.30;;;3.20;99.90;;;;;;5037287;28;20450;-79
2021/12/02 06:11:04;;;;;;;0.30;0.20;;;3.20;99.90;;;;;;5037214;28;20561;-79
2021/12/02 06:13:31;;;;;;;0.30;0.30;;;3.20;99.90;;;;;;5037197;28;20450;-78
2021/12/02 06:15:59;;;;;;;0.30;0.20;;;3.10;99.90;;;;;;5037743;28;20541;-78
2021/12/02 06:18:25;;;;;;;0.30;0.20;;;3.10;99.90;;;;;;5036853;28;20445;-78
2021/12/02 06:20:54;;;;;;;0.30;0.30;;;3.10;99.90;;;;;;5037067;28;20466;-81
2021/12/02 06:23:21;;;;;;;0.30;0.30;;;3.20;99.90;;;;;;5037106;28;20458;-82
2021/12/02 06:25:49;;;;;;;0.30;0.20;;;3.10;99.90;;;;;;5036961;28;20825;-81
2021/12/02 06:28:17;;;;;;;0.40;0.40;;;3.10;99.90;;;;;;5036751;28;20434;-81
2021/12/02 06:30:43;;;;;;;0.30;0.20;;;3.10;99.90;;;;;;5036897;28;20462;-81
2021/12/02 06:33:12;;;;;;;0.30;0.30;;;3.10;99.90;;;;;;5036861;28;20439;-81
2021/12/02 06:35:39;;;;;;;0.30;0.30;;;3.10;99.90;;;;;;5036317;28;20492;-81
2021/12/02 06:38:06;;;;;;;0.30;0.30;;;3.00;99.90;;;;;;5036749;28;20458;-79
2021/12/02 06:40:34;;;;;;;0.30;0.20;;;3.00;99.90;;;;;;5036526;28;20548;-79
2021/12/02 06:43:01;;;;;;;0.30;0.20;;;3.10;99.90;;;;;;5036751;28;20454;-79
2021/12/02 06:45:28;;;;;;;0.30;0.20;;;3.10;99.90;;;;;;5036372;28;20447;-79
2021/12/02 06:47:58;;;;;;;0.30;0.20;;;3.10;99.90;;;;;;5036555;28;20473;-79
2021/12/02 06:50:28;;;;;;;0.30;0.30;;;3.00;99.90;;;;;;5036146;28;20932;-79
2021/12/02 06:52:55;;;;;;;0.30;0.30;;;3.00;99.90;;;;;;5036128;28;20953;-79
2021/12/02 06:55:22;;;;;;;0.30;0.30;;;2.90;99.90;;;;;;5036712;28;20832;-79
2021/12/02 06:57:49;;;;;;;0.30;0.20;;;2.90;99.90;;;;;;5036375;28;20455;-79
2021/12/02 07:00:19;;;;;;;0.30;0.20;;;2.80;99.90;;;;;;5036190;28;20494;-78
2021/12/02 07:02:46;;;;;;;0.30;0.30;;;2.70;99.90;;;;;;5036302;28;20438;-79
2021/12/02 07:05:14;;;;;;;0.30;0.30;;;2.80;99.90;;;;;;5035996;28;20439;-78
2021/12/02 07:07:43;;;;;;;0.30;0.20;;;2.70;99.90;;;;;;5035996;28;20454;-79
2021/12/02 07:10:12;;;;;;;0.30;0.30;;;2.70;99.90;;;;;;5036038;28;20467;-78
2021/12/02 07:12:41;;;;;;;0.30;0.20;;;2.70;99.90;;;;;;5036057;28;20486;-78
2021/12/02 07:15:14;;;;;;;0.30;0.30;;;2.70;99.90;;;;;;5035314;28;20443;-79
2021/12/02 07:17:41;;;;;;;0.30;0.30;;;2.70;99.90;;;;;;5035106;28;20980;-78
2021/12/02 07:20:09;;;;;;;0.30;0.30;;;2.70;99.90;;;;;;5035872;28;20489;-79
2021/12/02 07:22:36;;;;;;;0.30;0.30;;;2.80;99.90;;;;;;5035799;28;20477;-79
2021/12/02 07:25:04;;;;;;;0.30;0.30;;;2.80;99.90;;;;;;5035980;28;20431;-79
2021/12/02 07:30:08;;;;;;;0.30;0.30;;;2.90;99.90;;;;;;5097250;23;20543;-78
2021/12/02 07:32:39;;;;;;;0.30;0.20;;;2.90;99.90;;;;;;5035811;28;20412;-77
2021/12/02 07:35:10;;;;;;;0.30;0.30;;;3.10;99.90;;;;;;5035806;28;20430;-78
2021/12/02 07:37:40;;;;;;;0.30;0.30;;;3.10;99.90;;;;;;5035707;28;20439;-78
2021/12/02 07:40:09;;;;;;;0.30;0.20;;;3.10;99.90;;;;;;5035508;28;20513;-77
2021/12/02 07:42:37;;;;;;;0.30;0.30;;;3.10;99.90;;;;;;5035377;28;20416;-80
2021/12/02 07:45:05;;;;;;;0.30;0.30;;;3.10;99.90;;;;;;5035606;28;20439;-81
2021/12/02 07:47:33;;;;;;;0.30;0.30;;;3.10;99.90;;;;;;5035257;28;20418;-81
2021/12/02 07:49:59;;;;;;;0.30;0.30;;;3.10;99.90;;;;;;5035449;28;20462;-81
2021/12/02 07:52:27;;;;;;;0.30;0.30;;;3.00;99.90;;;;;;5035152;28;20898;-81
2021/12/02 07:54:55;;;;;;;0.30;0.30;;;3.00;99.90;;;;;;5035313;28;20462;-81
2021/12/02 07:57:25;;;;;;;0.30;0.30;;;3.00;99.90;;;;;;5035001;28;20474;-81
2021/12/02 07:59:53;;;;;;;0.30;0.20;;;3.00;99.90;;;;;;5035094;28;20494;-81
2021/12/02 08:02:22;;;;;;;0.30;0.30;;;3.00;99.90;;;;;;5034876;28;20946;-81
2021/12/02 08:04:49;;;;;;;0.30;0.30;;;3.10;99.90;;;;;;5034827;28;20964;-81
2021/12/02 08:07:16;;;;;;;0.30;0.30;;;3.10;99.90;;;;;;5035076;28;20457;-81
2021/12/02 08:09:43;;;;;;;0.30;0.30;;;3.10;99.90;;;;;;5034675;28;20465;-81
2021/12/02 08:12:10;;;;;;;0.30;0.20;;;3.20;99.90;;;;;;5035013;28;20423;-81
2021/12/02 08:14:38;;;;;;;0.30;0.30;;;3.20;99.90;;;;;;5034662;28;20964;-78
2021/12/02 08:17:05;;;;;;;0.30;0.30;;;3.20;99.90;;;;;;5034725;28;20450;-78
2021/12/02 08:19:32;;;;;;;0.30;0.20;;;3.20;99.90;;;;;;5034682;28;20490;-77
2021/12/02 08:21:58;;;;;;;0.30;0.30;;;3.20;99.90;;;;;;5034457;28;20958;-78
2021/12/02 08:24:25;;;;;;;0.70;0.70;;;3.10;99.90;;;;;;5034448;28;20820;-78
2021/12/02 08:26:54;;;;;;;0.30;0.30;;;3.10;99.90;;;;;;5034265;28;20455;-78
2021/12/02 08:29:20;;;;;;;0.30;0.30;;;3.20;99.90;;;;;;5034205;28;20486;-78
2021/12/02 08:31:49;;;;;;;0.30;0.30;;;3.10;99.90;;;;;;5035329;28;20785;-78
2021/12/02 08:34:17;;;;;;;0.30;0.20;;;3.20;99.90;;;;;;5034547;28;20451;-78
2021/12/02 08:36:46;;;;;;;0.30;0.30;;;3.10;99.90;;;;;;5034182;28;20455;-78
2021/12/02 08:39:17;;;;;;;0.30;0.20;;;3.20;99.90;;;;;;5034024;28;20490;-78
2021/12/02 08:41:47;;;;;;;0.30;0.27;;;3.40;99.90;;;;;;5034468;28;20449;-78
2021/12/02 08:44:14;;;;;;;0.30;0.30;;;3.70;99.90;;;;;;5034321;28;20454;-78
2021/12/02 08:46:41;;;;;;;0.30;0.30;;;3.90;99.90;;;;;;5034118;28;20942;-78
2021/12/02 08:49:10;;;;;;;0.30;0.30;;;4.30;99.90;;;;;;5034203;28;20457;-78
2021/12/02 08:51:37;;;;;;;0.30;0.20;;;4.50;99.90;;;;;;5034277;28;20838;-78
2021/12/02 08:54:04;;;;;;;0.30;0.30;;;4.60;99.90;;;;;;5033951;28;20434;-78
2021/12/02 08:56:31;;;;;;;0.30;0.30;;;4.70;99.90;;;;;;5034179;28;20522;-78
2021/12/02 08:58:59;;;;;;;0.43;0.43;;;4.80;99.90;;;;;;5033968;28;20829;-79
2021/12/02 09:01:27;;;;;;;0.30;0.20;;;4.90;99.90;;;;;;5034124;28;20478;-79
2021/12/02 09:03:54;;;;;;;0.30;0.30;;;5.00;99.90;;;;;;5033944;28;20478;-79
2021/12/02 09:06:22;;;;;;;0.30;0.30;;;5.10;99.90;;;;;;5033650;28;20438;-79
2021/12/02 09:08:51;;;;;;;0.30;0.30;;;5.10;99.90;;;;;;5033913;28;20504;-80
2021/12/02 09:11:18;;;;;;;0.30;0.20;;;5.10;99.90;;;;;;5033599;28;20465;-79
2021/12/02 09:13:44;;;;;;;0.30;0.20;;;5.00;99.90;;;;;;5033910;28;20443;-79
2021/12/02 09:16:12;;;;;;;0.30;0.20;;;5.00;99.90;;;;;;5033796;28;20442;-79
2021/12/02 09:18:39;;;;;;;0.30;0.30;;;4.90;99.90;;;;;;5033778;28;20497;-79
2021/12/02 09:21:06;;;;;;;0.30;0.20;;;4.90;99.90;;;;;;5033384;28;21021;-79
2021/12/02 09:23:34;;;;;;;0.30;0.30;;;4.90;99.90;;;;;;5033775;28;20439;-79
2021/12/02 09:26:01;;;;;;;0.40;0.40;;;5.00;99.90;;;;;;5033719;28;20463;-79
2021/12/02 09:28:28;;;;;;;0.30;0.30;;;5.00;99.90;;;;;;5033482;28;20482;-79
2021/12/02 09:30:55;;;;;;;0.30;0.20;;;5.00;99.90;;;;;;5033579;28;20477;-79
2021/12/02 09:33:22;;;;;;;0.30;0.30;;;5.10;99.90;;;;;;5033611;28;20454;-79
2021/12/02 09:35:49;;;;;;;0.30;0.20;;;5.30;99.90;;;;;;5033538;28;20435;-79
2021/12/02 09:38:15;;;;;;;0.30;0.20;;;5.50;99.90;;;;;;5033566;28;20418;-79
2021/12/02 09:40:44;;;;;;;0.30;0.20;;;5.60;99.90;;;;;;5032930;28;20497;-79
2021/12/02 09:43:12;;;;;;;0.30;0.30;;;5.70;99.90;;;;;;5033204;28;20930;-80
2021/12/02 09:45:40;;;;;;;0.30;0.30;;;5.60;99.90;;;;;;5033201;28;20442;-79
2021/12/02 09:48:08;;;;;;;0.30;0.20;;;5.50;99.90;;;;;;5033480;28;20430;-79
2021/12/02 09:50:38;;;;;;;0.30;0.20;;;5.40;99.90;;;;;;5033364;28;20470;-79
2021/12/02 09:53:08;;;;;;;0.30;0.20;;;5.30;99.90;;;;;;5033371;28;20458;-79
2021/12/02 09:55:42;;;;;;;0.30;0.20;;;5.20;99.90;;;;;;5033091;28;20864;-80
2021/12/02 09:58:18;;;;;;;0.30;0.20;;;5.10;99.90;;;;;;5033408;28;20446;-79
2021/12/02 10:00:48;;;;;;;0.30;0.30;;;5.00;99.90;;;;;;5033142;28;20544;-79
2021/12/02 10:03:25;;;;;;;0.30;0.30;;;4.90;99.90;;;;;;5033538;28;20849;-80
2021/12/02 10:06:02;;;;;;;0.30;0.30;;;4.80;99.90;;;;;;5033229;28;20434;-80
2021/12/02 10:08:32;;;;;;;0.30;0.20;;;4.80;99.90;;;;;;5033255;28;20485;-80
2021/12/02 10:11:00;;;;;;;0.60;0.47;;;4.70;99.90;;;;;;5033135;28;20561;-79
2021/12/02 10:13:36;;;;;;;0.30;0.20;;;4.70;99.90;;;;;;5033174;28;20509;-80
2021/12/02 10:16:11;;;;;;;0.30;0.20;;;4.60;99.90;;;;;;5033180;28;20492;-80
2021/12/02 10:18:53;;;;;;;0.30;0.30;;;4.50;99.90;;;;;;5033086;28;20443;-80
2021/12/02 10:21:27;;;;;;;0.30;0.20;;;4.40;99.90;;;;;;5032758;28;20515;-80
2021/12/02 10:23:54;;;;;;;0.30;0.20;;;4.30;99.90;;;;;;5033119;28;20537;-80
2021/12/02 10:26:23;;;;;;;0.30;0.20;;;4.30;99.90;;;;;;5032947;28;20477;-80
2021/12/02 10:28:52;;;;;;;0.30;0.20;;;4.20;99.90;;;;;;5032665;28;20490;-80
2021/12/02 10:31:23;;;;;;;0.30;0.20;;;4.20;99.90;;;;;;5032848;28;20471;-80
2021/12/02 10:33:54;;;;;;;0.30;0.20;;;4.10;99.90;;;;;;5033059;28;20438;-79
2021/12/02 10:36:30;;;;;;;0.30;0.20;;;4.00;99.90;;;;;;5032986;28;20431;-78
2021/12/02 10:38:59;;;;;;;0.30;0.20;;;3.70;99.90;;;;;;5032961;28;20434;-79
2021/12/02 10:41:31;;;;;;;0.30;0.20;;;3.50;99.90;;;;;;5032744;28;20495;-78
2021/12/02 10:44:15;;;;;;;0.30;0.20;;;3.30;99.90;;;;;;5032908;28;20464;-79
2021/12/02 10:46:57;;;;;;;0.30;0.30;;;3.10;99.90;;;;;;5032857;28;20441;-79
2021/12/02 10:49:25;;;;;;;0.30;0.20;;;3.00;99.90;;;;;;5032727;28;20442;-78
2021/12/02 10:51:54;;;;;;;0.30;0.20;;;2.90;99.90;;;;;;5035824;28;20424;-79
2021/12/02 10:54:23;;;;;;;0.30;0.20;;;2.80;99.90;;;;;;5036523;28;20427;-78
2021/12/02 10:56:54;;;;;;;0.30;0.30;;;2.80;99.90;;;;;;5036469;28;20442;-78
2021/12/02 10:59:28;;;;;;;0.30;0.20;;;2.80;99.90;;;;;;5036393;28;20430;-78
2021/12/02 11:01:57;;;;;;;0.30;0.20;;;2.70;99.90;;;;;;5035988;28;20813;-77
2021/12/02 11:04:25;;;;;;;0.30;0.20;;;2.80;99.90;;;;;;5036059;28;20985;-77
2021/12/02 11:07:00;;;;;;;0.30;0.30;;;2.80;99.90;;;;;;5036295;28;20462;-78
2021/12/02 11:09:29;;;;;;;0.30;0.30;;;2.70;99.90;;;;;;5035840;28;21130;-78
2021/12/02 11:12:17;;;;;;;0.30;0.20;;;2.80;99.90;;;;;;5035882;28;20898;-78
2021/12/02 11:14:54;;;;;;;0.30;0.30;;;2.90;99.90;;;;;;5036190;28;20845;-78
2021/12/02 11:17:22;;;;;;;0.30;0.20;;;2.90;99.90;;;;;;5036141;28;20415;-78
2021/12/02 11:19:51;;;;;;;0.30;0.20;;;3.00;99.90;;;;;;5035909;28;20473;-79
2021/12/02 11:22:19;;;;;;;0.30;0.30;;;3.10;99.90;;;;;;5035733;28;20938;-78
2021/12/02 11:24:47;;;;;;;0.30;0.30;;;3.10;99.90;;;;;;5035949;28;20431;-79
2021/12/02 11:27:18;;;;;;;0.30;0.20;;;3.20;99.90;;;;;;5035619;28;20435;-79
2021/12/02 11:29:58;;;;;;;0.30;0.30;;;3.20;99.90;;;;;;5035281;28;20485;-79
2021/12/02 11:32:47;;;;;;;0.30;0.30;;;3.20;99.90;;;;;;5035845;28;20435;-79
2021/12/02 11:35:18;;;;;;;0.30;0.30;;;3.20;99.90;;;;;;5035534;28;20791;-79
2021/12/02 11:37:49;;;;;;;0.30;0.30;;;3.20;99.90;;;;;;5035424;28;20537;-79
2021/12/02 11:40:20;;;;;;;0.30;0.20;;;3.20;99.90;;;;;;5035534;28;20498;-79
2021/12/02 11:42:49;;;;;;;0.30;0.20;;;3.20;99.90;;;;;;5035347;28;20907;-79
2021/12/02 11:45:20;;;;;;;0.30;0.30;;;3.40;99.90;;;;;;5035298;28;20446;-79
2021/12/02 11:47:47;;;;;;;0.30;0.20;;;3.50;99.90;;;;;;5035541;28;20431;-79
2021/12/02 11:50:17;;;;;;;0.30;0.27;;;3.60;99.90;;;;;;5035410;28;20463;-78
2021/12/02 11:52:44;;;;;;;0.30;0.20;;;3.50;99.90;;;;;;5035855;28;20869;-78
2021/12/02 11:55:15;;;;;;;0.30;0.30;;;3.60;99.90;;;;;;5035123;28;20415;-79
2021/12/02 11:57:42;;;;;;;0.30;0.20;;;3.70;99.90;;;;;;5035387;28;20793;-79
2021/12/02 12:00:11;;;;;;;0.30;0.20;;;3.70;99.90;;;;;;5035174;28;20470;-79
2021/12/02 12:02:48;;;;;;;0.30;0.30;;;3.80;99.90;;;;;;5034387;28;20435;-79
2021/12/02 12:05:16;;;;;;;0.30;0.20;;;3.80;99.90;;;;;;5035110;28;20478;-81
2021/12/02 12:07:46;;;;;;;0.30;0.20;;;3.80;99.90;;;;;;5034933;28;20411;-79
2021/12/02 12:10:26;;;;;;;0.30;0.30;;;3.80;99.90;;;;;;5035029;28;20455;-79
2021/12/02 12:12:54;;;;;;;0.47;0.30;;;3.80;99.90;;;;;;5035088;28;20441;-79
2021/12/02 12:15:35;;;;;;;0.30;0.20;;;3.70;99.90;;;;;;5035051;28;20408;-79
2021/12/02 12:18:05;;;;;;;0.30;0.30;;;3.60;99.90;;;;;;5034960;28;20435;-78
2021/12/02 12:20:53;;;;;;;0.30;0.20;;;3.70;99.90;;;;;;5034517;28;20483;-79
2021/12/02 12:23:42;;;;;;;0.30;0.20;;;3.80;99.90;;;;;;5034853;28;20442;-79
2021/12/02 12:26:12;;;;;;;0.30;0.20;;;3.80;99.90;;;;;;5028011;28;20465;-80
2021/12/02 12:29:30;;;;;;;0.30;0.30;;;3.90;99.90;;;;;;5034529;28;20502;-79
2021/12/02 12:32:26;;;;;;;0.30;0.30;;;4.00;99.90;;;;;;5034686;28;20443;-79
2021/12/02 12:35:01;;;;;;;0.30;0.20;;;4.00;99.90;;;;;;5034315;28;20974;-80
2021/12/02 12:37:55;;;;;;;0.33;0.30;;;4.00;99.90;;;;;;5034593;28;20453;-79
2021/12/02 12:40:29;;;;;;;0.30;0.20;;;4.00;99.90;;;;;;5034101;28;20512;-79
2021/12/02 12:43:28;;;;;;;0.30;0.20;;;4.00;99.90;;;;;;5034213;28;20407;-79
2021/12/02 12:46:18;;;;;;;0.30;0.20;;;3.90;99.90;;;;;;5034631;28;20439;-80
2021/12/02 12:48:45;;;;;;;0.30;0.30;;;3.90;99.90;;;;;;5034963;28;20426;-80
2021/12/02 12:51:33;;;;;;;0.30;0.30;;;3.90;99.90;;;;;;5034993;28;20467;-80
2021/12/02 12:54:02;;;;;;;0.30;0.20;;;4.00;99.90;;;;;;5034344;28;20411;-80
2021/12/02 12:56:31;;;;;;;0.30;0.30;;;4.00;99.90;;;;;;5034278;28;20465;-80
2021/12/02 12:59:01;;;;;;;0.30;0.20;;;4.00;99.90;;;;;;5034206;28;20439;-80
2021/12/02 13:01:29;;;;;;;0.30;0.30;;;4.10;99.90;;;;;;5034024;28;20490;-80
2021/12/02 13:04:13;;;;;;;0.30;0.30;;;4.10;99.90;;;;;;5034106;28;20525;-80
2021/12/02 13:07:03;;;;;;;0.30;0.20;;;4.10;99.90;;;;;;5033780;28;20992;-80
2021/12/02 13:09:56;;;;;;;0.87;0.40;;;4.20;99.90;;;;;;5034541;28;20511;-80
2021/12/02 13:12:48;;;;;;;0.30;0.20;;;4.20;99.90;;;;;;5033972;28;20438;-80
2021/12/02 13:15:18;;;;;;;0.40;0.40;;;4.20;99.90;;;;;;5033981;28;20439;-81
2021/12/02 13:17:47;;;;;;;0.30;0.20;;;4.20;99.90;;;;;;5033625;28;20990;-81